Time;durP1;ratioP1;P1;durP2;ratioP2;P2;SDS_P1;SDS_P2;PMS_P1;PMS_P2;Temp;Humidity;BMP_temperature;BMP_pressure;BME280_temperature;BME280_humidity;BME280_pressure;Samples;Min_cycle;Max_cycle;Signal;HPM_P1;HPM_P2
2023/03/08 00:04:22;;;;;;;3.40;3.10;;;5.70;99.90;;;;;;10301769;28;20247;-69
2023/03/08 00:09:23;;;;;;;3.30;3.00;;;5.70;99.90;;;;;;10309056;28;20647;-69
2023/03/08 00:14:23;;;;;;;3.07;2.80;;;5.60;99.90;;;;;;10306938;28;20221;-67
2023/03/08 00:19:24;;;;;;;3.40;3.00;;;5.60;99.90;;;;;;10305802;28;20234;-68
2023/03/08 00:24:27;;;;;;;3.90;2.60;;;5.60;99.90;;;;;;10306044;28;20280;-69
2023/03/08 00:29:31;;;;;;;3.27;2.97;;;5.70;99.90;;;;;;10325464;28;20245;-71
2023/03/08 00:34:31;;;;;;;3.40;3.10;;;5.70;99.90;;;;;;10335479;28;20647;-68
2023/03/08 00:39:32;;;;;;;3.43;3.00;;;5.60;99.90;;;;;;10312502;28;20250;-68
2023/03/08 00:44:32;;;;;;;3.30;3.00;;;5.70;99.90;;;;;;10315656;28;20593;-69
2023/03/08 00:49:33;;;;;;;3.30;3.00;;;5.70;99.90;;;;;;10312066;28;20232;-69
2023/03/08 00:54:34;;;;;;;3.40;2.70;;;5.70;99.90;;;;;;10317818;28;20242;-70
2023/03/08 00:59:34;;;;;;;2.70;2.50;;;5.70;99.90;;;;;;10309315;28;20667;-69
2023/03/08 01:04:35;;;;;;;2.60;2.40;;;5.70;99.90;;;;;;10315352;28;20227;-69
2023/03/08 01:09:35;;;;;;;2.50;2.30;;;5.70;99.90;;;;;;10316684;28;20277;-67
2023/03/08 01:14:37;;;;;;;2.33;2.13;;;5.70;99.90;;;;;;10316607;28;20582;-70
2023/03/08 01:19:37;;;;;;;2.60;2.40;;;5.60;99.90;;;;;;10310298;28;20226;-68
2023/03/08 01:24:38;;;;;;;2.93;2.63;;;5.60;99.90;;;;;;10314745;28;20214;-69
2023/03/08 01:29:39;;;;;;;3.10;2.80;;;5.60;99.90;;;;;;10320476;28;20217;-68
2023/03/08 01:34:39;;;;;;;3.10;2.60;;;5.50;99.90;;;;;;10314174;28;20224;-68
2023/03/08 01:39:40;;;;;;;3.20;2.90;;;5.50;99.90;;;;;;10323986;28;20218;-69
2023/03/08 01:44:53;;;;;;;4.23;3.10;;;5.50;99.90;;;;;;10307925;28;20295;-68
2023/03/08 01:49:58;;;;;;;3.53;2.93;;;5.50;99.90;;;;;;10323770;28;20656;-67
2023/03/08 01:55:02;;;;;;;3.57;3.27;;;5.60;99.90;;;;;;10316141;28;20740;-66
2023/03/08 02:00:25;;;;;;;3.10;2.80;;;5.60;99.90;;;;;;10313733;28;20233;-68
2023/03/08 02:05:26;;;;;;;3.30;3.00;;;5.60;99.90;;;;;;10311772;28;20221;-68
2023/03/08 02:10:27;;;;;;;3.10;2.67;;;5.70;99.90;;;;;;10309705;28;20226;-68
2023/03/08 02:15:28;;;;;;;3.90;2.93;;;5.60;99.90;;;;;;10311619;28;20238;-67
2023/03/08 02:20:37;;;;;;;3.80;3.33;;;5.60;99.90;;;;;;10316625;28;20230;-68
2023/03/08 02:25:38;;;;;;;3.67;3.00;;;5.60;99.90;;;;;;10318867;28;20232;-70
2023/03/08 02:30:39;;;;;;;5.67;4.63;;;5.60;99.90;;;;;;10312239;28;20269;-68
2023/03/08 02:35:41;;;;;;;6.53;4.90;;;5.60;99.90;;;;;;10325528;28;20224;-68
2023/03/08 02:40:42;;;;;;;8.53;6.87;;;5.60;99.90;;;;;;10306542;28;20607;-68
2023/03/08 02:45:43;;;;;;;8.70;6.90;;;5.60;99.90;;;;;;10318566;28;20237;-69
2023/03/08 02:50:44;;;;;;;10.80;7.80;;;5.70;99.90;;;;;;10305347;28;20224;-68
2023/03/08 02:55:44;;;;;;;11.07;8.00;;;5.70;99.90;;;;;;10311823;28;20673;-67
2023/03/08 03:00:45;;;;;;;10.73;7.63;;;5.80;99.90;;;;;;10305069;28;20249;-67
2023/03/08 03:05:46;;;;;;;10.40;7.67;;;5.90;99.90;;;;;;10311812;28;20222;-68
2023/03/08 03:10:46;;;;;;;11.17;7.90;;;5.90;99.90;;;;;;10312481;28;20309;-68
2023/03/08 03:15:47;;;;;;;10.43;7.73;;;5.90;99.90;;;;;;10318306;28;20218;-69
2023/03/08 03:20:47;;;;;;;11.13;8.00;;;6.00;99.90;;;;;;10303744;28;20242;-68
2023/03/08 03:25:48;;;;;;;11.53;7.77;;;6.00;99.90;;;;;;10311165;28;20225;-68
2023/03/08 03:30:48;;;;;;;9.80;7.43;;;6.00;99.90;;;;;;10308340;28;20218;-69
2023/03/08 03:35:49;;;;;;;10.63;7.80;;;6.00;99.90;;;;;;10317630;28;20227;-67
2023/03/08 03:40:49;;;;;;;11.93;7.73;;;6.00;99.90;;;;;;10309897;28;20731;-67
2023/03/08 03:46:02;;;;;;;10.90;7.60;;;6.00;99.90;;;;;;10321139;28;20224;-67
2023/03/08 03:51:09;;;;;;;10.60;7.80;;;6.00;99.90;;;;;;10306323;28;20255;-67
2023/03/08 03:56:20;;;;;;;11.00;7.40;;;6.00;99.90;;;;;;10322156;28;20652;-66
2023/03/08 04:01:24;;;;;;;10.57;7.57;;;6.00;99.90;;;;;;10306904;28;20244;-69
2023/03/08 04:06:29;;;;;;;10.73;7.70;;;6.00;99.90;;;;;;10306734;28;20231;-68
2023/03/08 04:11:37;;;;;;;14.90;7.83;;;6.00;99.90;;;;;;10302529;28;20656;-68
2023/03/08 04:16:38;;;;;;;10.03;7.30;;;6.00;99.90;;;;;;10310354;28;20251;-68
2023/03/08 04:21:39;;;;;;;11.83;8.00;;;6.00;99.90;;;;;;10308958;28;20323;-69
2023/03/08 04:26:42;;;;;;;12.00;8.40;;;6.00;99.90;;;;;;10320217;28;20554;-68
2023/03/08 04:31:43;;;;;;;11.67;7.43;;;6.00;99.90;;;;;;10314265;28;20260;-69
2023/03/08 04:36:43;;;;;;;13.77;8.00;;;6.00;99.90;;;;;;10302700;28;20253;-68
2023/03/08 04:41:44;;;;;;;10.10;7.70;;;6.00;99.90;;;;;;10315640;28;20260;-68
2023/03/08 04:46:45;;;;;;;9.37;7.67;;;6.00;99.90;;;;;;10301937;28;20261;-68
2023/03/08 04:51:45;;;;;;;10.50;7.53;;;6.00;99.90;;;;;;10315112;28;20230;-67
2023/03/08 04:56:46;;;;;;;11.67;7.63;;;6.00;99.90;;;;;;10301494;28;20314;-69
2023/03/08 05:01:46;;;;;;;11.93;8.00;;;6.00;99.90;;;;;;10309161;28;20268;-70
2023/03/08 05:06:47;;;;;;;11.03;7.33;;;6.00;99.90;;;;;;10308503;28;20226;-70
2023/03/08 05:11:47;;;;;;;14.80;7.97;;;6.00;99.90;;;;;;10301653;28;20234;-68
2023/03/08 05:16:55;;;;;;;11.33;7.27;;;6.00;99.90;;;;;;10314953;28;20236;-68
2023/03/08 05:21:55;;;;;;;9.20;6.80;;;6.00;99.90;;;;;;10308816;28;20238;-71
2023/03/08 05:26:56;;;;;;;11.60;7.80;;;6.00;99.90;;;;;;10321652;28;20226;-70
2023/03/08 05:31:57;;;;;;;11.80;7.97;;;6.00;99.90;;;;;;10309055;28;20252;-69
2023/03/08 05:36:58;;;;;;;10.57;7.10;;;6.00;99.90;;;;;;10326389;28;20221;-69
2023/03/08 05:41:59;;;;;;;11.33;7.73;;;6.00;99.90;;;;;;10322702;28;20309;-71
2023/03/08 05:46:59;;;;;;;15.30;7.80;;;6.00;99.90;;;;;;10314081;28;20234;-70
2023/03/08 05:52:00;;;;;;;11.97;8.47;;;6.00;99.90;;;;;;10318056;28;20240;-70
2023/03/08 05:57:00;;;;;;;14.47;8.93;;;5.90;99.90;;;;;;10315164;28;20217;-69
2023/03/08 06:02:04;;;;;;;14.93;9.00;;;5.80;99.90;;;;;;10313210;28;20232;-68
2023/03/08 06:07:05;;;;;;;14.03;8.87;;;5.70;99.90;;;;;;10308478;28;20694;-68
2023/03/08 06:12:06;;;;;;;11.37;8.40;;;5.70;99.90;;;;;;10319053;28;20227;-71
2023/03/08 06:17:06;;;;;;;12.77;8.87;;;5.50;99.90;;;;;;10308076;28;20646;-69
2023/03/08 06:22:07;;;;;;;13.60;9.30;;;5.30;99.90;;;;;;10327642;28;20719;-67
2023/03/08 06:27:07;;;;;;;12.73;9.10;;;5.10;99.90;;;;;;10313629;28;20223;-67
2023/03/08 06:32:08;;;;;;;15.30;9.47;;;5.00;99.90;;;;;;10310926;28;20234;-68
2023/03/08 06:37:09;;;;;;;15.33;10.00;;;4.80;99.90;;;;;;10315668;28;20224;-69
2023/03/08 06:42:09;;;;;;;14.80;9.80;;;4.70;99.90;;;;;;10304144;28;20226;-69
2023/03/08 06:47:10;;;;;;;14.37;9.30;;;4.60;99.90;;;;;;10314220;28;20223;-67
2023/03/08 06:52:11;;;;;;;14.40;8.70;;;4.60;99.90;;;;;;10310195;28;20263;-69
2023/03/08 06:57:11;;;;;;;12.47;7.57;;;4.70;99.90;;;;;;10314331;28;20282;-68
2023/03/08 07:02:12;;;;;;;15.03;8.20;;;4.70;99.90;;;;;;10309797;28;20234;-69
2023/03/08 07:07:12;;;;;;;14.57;8.80;;;4.80;99.90;;;;;;10307261;28;20305;-68
2023/03/08 07:12:13;;;;;;;11.67;8.80;;;4.80;99.90;;;;;;10315859;28;20230;-69
2023/03/08 07:17:14;;;;;;;11.17;7.97;;;4.90;99.90;;;;;;10318346;28;20643;-68
2023/03/08 07:22:15;;;;;;;11.27;7.87;;;5.00;99.90;;;;;;10308572;28;20240;-68
2023/03/08 07:27:16;;;;;;;11.60;7.90;;;5.00;99.90;;;;;;10306468;28;20228;-68
2023/03/08 07:32:16;;;;;;;12.83;8.63;;;5.10;99.90;;;;;;10317872;28;20210;-68
2023/03/08 07:37:18;;;;;;;13.10;9.47;;;5.30;99.90;;;;;;10302419;28;20246;-68
2023/03/08 07:42:18;;;;;;;13.30;9.17;;;5.10;99.90;;;;;;10313627;28;21049;-68
2023/03/08 07:47:20;;;;;;;16.07;10.50;;;4.90;99.90;;;;;;10322442;28;20229;-67
2023/03/08 07:52:25;;;;;;;14.43;10.37;;;4.80;99.90;;;;;;10312402;28;20260;-68
2023/03/08 07:57:25;;;;;;;16.33;10.30;;;4.70;99.90;;;;;;10305397;28;20256;-69
2023/03/08 08:02:26;;;;;;;17.10;10.60;;;4.50;99.90;;;;;;10318238;28;20338;-68
2023/03/08 08:07:26;;;;;;;16.27;10.90;;;4.40;99.90;;;;;;10306400;28;20225;-68
2023/03/08 08:12:27;;;;;;;16.73;11.17;;;4.40;99.90;;;;;;10309919;28;20579;-68
2023/03/08 08:17:28;;;;;;;19.30;12.00;;;4.40;99.90;;;;;;10304690;28;20230;-68
2023/03/08 08:22:28;;;;;;;16.50;10.50;;;4.50;99.90;;;;;;10317433;28;20634;-70
2023/03/08 08:27:29;;;;;;;17.67;12.03;;;4.40;99.90;;;;;;10308045;28;20218;-69
2023/03/08 08:32:31;;;;;;;16.93;11.20;;;4.40;99.90;;;;;;10304747;28;20226;-69
2023/03/08 08:37:32;;;;;;;16.73;11.10;;;4.40;99.90;;;;;;10310925;28;20230;-68
2023/03/08 08:42:33;;;;;;;17.33;12.40;;;4.40;99.90;;;;;;10312813;28;20234;-70
2023/03/08 08:47:33;;;;;;;17.43;12.13;;;4.40;99.90;;;;;;10307093;28;20224;-69
2023/03/08 08:52:34;;;;;;;19.63;13.60;;;4.30;99.90;;;;;;10311374;28;20313;-69
2023/03/08 08:57:34;;;;;;;23.43;13.73;;;4.30;99.90;;;;;;10314993;28;20248;-69
2023/03/08 09:02:35;;;;;;;19.67;13.53;;;4.40;99.90;;;;;;10311435;28;20287;-68
2023/03/08 09:07:36;;;;;;;21.63;13.80;;;4.50;99.90;;;;;;10321792;28;20224;-69
2023/03/08 09:12:36;;;;;;;20.33;13.60;;;4.60;99.90;;;;;;10317997;28;20292;-69
2023/03/08 09:17:38;;;;;;;18.20;13.03;;;4.80;99.90;;;;;;10314517;28;20228;-68
2023/03/08 09:22:39;;;;;;;19.40;13.87;;;4.90;99.90;;;;;;10323155;28;20601;-68
2023/03/08 09:27:41;;;;;;;22.13;14.53;;;4.90;99.90;;;;;;10311672;28;20246;-68
2023/03/08 09:32:42;;;;;;;18.27;13.97;;;5.10;99.90;;;;;;10324647;28;20225;-69
2023/03/08 09:37:42;;;;;;;17.90;13.67;;;5.20;99.90;;;;;;10317214;28;20707;-68
2023/03/08 09:42:44;;;;;;;20.27;14.87;;;5.30;99.90;;;;;;10315059;28;20732;-68
2023/03/08 09:48:13;;;;;;;20.97;14.53;;;5.20;99.90;;;;;;10321721;28;20224;-68
2023/03/08 09:53:28;;;;;;;16.97;13.40;;;5.30;99.90;;;;;;10329836;28;20653;-69
2023/03/08 09:58:42;;;;;;;16.90;13.27;;;5.20;99.90;;;;;;10310143;28;20321;-69
2023/03/08 10:03:56;;;;;;;14.53;11.73;;;5.20;99.90;;;;;;10314629;28;20768;-68
2023/03/08 10:09:28;;;;;;;13.43;10.83;;;5.30;99.90;;;;;;10314415;28;20232;-68
2023/03/08 10:14:35;;;;;;;11.33;9.73;;;5.30;99.90;;;;;;10324570;28;20637;-70
2023/03/08 10:19:39;;;;;;;12.10;9.67;;;5.30;99.90;;;;;;10312067;28;20232;-69
2023/03/08 10:24:51;;;;;;;13.20;9.13;;;5.30;99.90;;;;;;10313959;28;20225;-69
2023/03/08 10:29:56;;;;;;;11.83;9.40;;;5.40;99.90;;;;;;10314549;28;20221;-68
2023/03/08 10:35:04;;;;;;;10.43;8.43;;;5.40;99.90;;;;;;10306598;28;20350;-69
2023/03/08 10:40:17;;;;;;;11.47;8.97;;;5.40;99.90;;;;;;10314659;28;20221;-68
2023/03/08 10:45:21;;;;;;;9.07;7.57;;;5.50;99.90;;;;;;10308773;28;20249;-68
2023/03/08 10:50:24;;;;;;;10.07;8.03;;;5.60;99.90;;;;;;10313524;28;20646;-68
2023/03/08 10:55:29;;;;;;;10.53;7.87;;;5.60;99.90;;;;;;10304534;28;20265;-68
2023/03/08 11:00:29;;;;;;;9.60;8.17;;;5.60;99.90;;;;;;10307999;28;20242;-69
2023/03/08 11:05:30;;;;;;;9.50;7.73;;;5.60;99.90;;;;;;10309392;28;20225;-68
2023/03/08 11:10:31;;;;;;;10.73;7.93;;;5.60;99.90;;;;;;10306568;28;20222;-69
2023/03/08 11:15:36;;;;;;;9.73;7.70;;;5.60;99.90;;;;;;10315822;28;20241;-69
2023/03/08 11:20:45;;;;;;;8.03;6.53;;;5.70;99.90;;;;;;10306221;28;20238;-69
2023/03/08 11:26:08;;;;;;;10.43;7.07;;;5.70;99.90;;;;;;10317612;28;20746;-68
2023/03/08 11:31:13;;;;;;;11.77;7.57;;;5.70;99.90;;;;;;10309200;28;20251;-68
2023/03/08 11:36:25;;;;;;;12.43;7.50;;;5.70;99.90;;;;;;10320495;28;20229;-70
2023/03/08 11:41:44;;;;;;;11.27;8.07;;;5.70;99.90;;;;;;10317001;28;20240;-68
2023/03/08 11:46:58;;;;;;;11.43;8.37;;;5.80;99.90;;;;;;10310551;28;20221;-69
2023/03/08 11:52:34;;;;;;;13.20;10.03;;;5.80;99.90;;;;;;10313019;28;20233;-68
2023/03/08 11:57:39;;;;;;;10.53;8.13;;;6.00;99.90;;;;;;10299799;28;20643;-69
2023/03/08 12:02:45;;;;;;;10.30;8.77;;;6.10;99.90;;;;;;10318616;28;20312;-69
2023/03/08 12:07:54;;;;;;;11.83;9.03;;;6.30;99.90;;;;;;10303424;28;20680;-69
2023/03/08 12:13:11;;;;;;;10.37;8.97;;;6.40;99.90;;;;;;10303162;28;20232;-69
2023/03/08 12:18:34;;;;;;;11.20;9.70;;;6.40;99.90;;;;;;10320960;28;20232;-68
2023/03/08 12:23:50;;;;;;;12.80;10.07;;;6.30;99.90;;;;;;10312224;28;20862;-68
2023/03/08 12:28:57;;;;;;;22.13;11.00;;;6.30;99.90;;;;;;10315757;28;20236;-69
2023/03/08 12:33:59;;;;;;;15.50;11.70;;;6.30;99.90;;;;;;10315111;28;20735;-69
2023/03/08 12:39:22;;;;;;;15.60;12.03;;;6.20;99.90;;;;;;10322499;28;20316;-68
2023/03/08 12:44:27;;;;;;;16.37;12.00;;;6.40;99.90;;;;;;10318751;28;20711;-68
2023/03/08 12:49:37;;;;;;;17.77;12.77;;;6.40;99.90;;;;;;10335103;28;20775;-69
2023/03/08 12:54:38;;;;;;;14.47;12.03;;;6.50;99.90;;;;;;10314693;28;20238;-69
2023/03/08 12:59:40;;;;;;;18.60;12.17;;;6.50;99.90;;;;;;10320742;28;20222;-69
2023/03/08 13:04:40;;;;;;;16.43;13.40;;;6.50;99.90;;;;;;10322921;28;20265;-68
2023/03/08 13:09:41;;;;;;;18.80;13.33;;;6.50;99.90;;;;;;10327369;28;20682;-69
2023/03/08 13:14:43;;;;;;;17.87;13.93;;;6.60;99.90;;;;;;10322877;28;20218;-69
2023/03/08 13:19:44;;;;;;;17.37;13.27;;;6.70;99.90;;;;;;10327642;28;20282;-68
2023/03/08 13:24:47;;;;;;;13.17;11.70;;;6.80;99.90;;;;;;10314890;28;20234;-69
2023/03/08 13:29:48;;;;;;;14.23;12.13;;;6.80;99.90;;;;;;10339382;28;20785;-68
2023/03/08 13:35:00;;;;;;;16.23;12.27;;;6.80;99.90;;;;;;10312173;28;20234;-70
2023/03/08 13:40:03;;;;;;;27.83;13.37;;;6.80;99.90;;;;;;10315367;28;20226;-69
2023/03/08 13:45:14;;;;;;;16.63;12.00;;;6.80;99.90;;;;;;10308847;28;20237;-68
2023/03/08 13:50:37;;;;;;;14.87;12.10;;;6.90;99.90;;;;;;10327848;28;20317;-68
2023/03/08 13:55:42;;;;;;;15.27;12.10;;;7.00;99.90;;;;;;10308913;28;20222;-69
2023/03/08 14:00:42;;;;;;;15.07;12.57;;;7.10;99.90;;;;;;10313471;28;20325;-69
2023/03/08 14:05:44;;;;;;;15.00;11.97;;;7.20;99.90;;;;;;10309187;28;20310;-68
2023/03/08 14:10:52;;;;;;;14.83;12.00;;;7.20;99.90;;;;;;10328623;28;20315;-69
2023/03/08 14:15:59;;;;;;;15.80;11.33;;;7.30;99.90;;;;;;10313110;28;20266;-69
2023/03/08 14:21:26;;;;;;;15.47;10.90;;;7.30;99.90;;;;;;10313495;28;20233;-68
2023/03/08 14:26:30;;;;;;;14.03;11.10;;;7.50;99.90;;;;;;10310577;28;20224;-68
2023/03/08 14:31:30;;;;;;;14.53;11.23;;;7.70;99.90;;;;;;10312262;28;20224;-68
2023/03/08 14:36:32;;;;;;;15.50;10.93;;;7.80;99.90;;;;;;10308209;28;20225;-69
2023/03/08 14:41:38;;;;;;;15.07;11.63;;;7.90;99.90;;;;;;10310112;28;20232;-70
2023/03/08 14:46:38;;;;;;;16.33;12.27;;;7.90;99.90;;;;;;10311925;28;20316;-68
2023/03/08 14:51:41;;;;;;;13.83;11.77;;;7.90;99.90;;;;;;10315180;28;20229;-69
2023/03/08 14:56:42;;;;;;;16.83;10.80;;;8.10;99.90;;;;;;10304741;28;20793;-70
2023/03/08 15:01:42;;;;;;;14.10;10.37;;;8.10;99.90;;;;;;10311503;28;20229;-68
2023/03/08 15:06:44;;;;;;;11.70;9.17;;;8.20;99.90;;;;;;10305694;28;20220;-69
2023/03/08 15:11:47;;;;;;;10.17;8.20;;;8.30;99.90;;;;;;10318333;28;20225;-69
2023/03/08 15:16:49;;;;;;;11.20;7.90;;;8.40;99.90;;;;;;10312209;28;20668;-70
2023/03/08 15:21:50;;;;;;;10.87;7.27;;;8.50;99.90;;;;;;10318989;28;20240;-69
2023/03/08 15:26:51;;;;;;;10.93;6.57;;;8.60;99.90;;;;;;10311731;28;20221;-70
2023/03/08 15:31:53;;;;;;;11.57;7.03;;;8.70;99.90;;;;;;10319419;28;20222;-68
2023/03/08 15:36:54;;;;;;;7.53;6.40;;;8.70;99.90;;;;;;10311655;28;20490;-69
2023/03/08 15:41:54;;;;;;;9.30;6.10;;;8.80;99.90;;;;;;10303628;28;20264;-70
2023/03/08 15:46:55;;;;;;;6.87;4.90;;;8.90;99.90;;;;;;10310443;28;20678;-69
2023/03/08 15:51:56;;;;;;;6.87;4.67;;;9.00;99.90;;;;;;10323784;28;20318;-68
2023/03/08 15:56:58;;;;;;;5.87;4.30;;;9.00;99.90;;;;;;10310596;28;20221;-69
2023/03/08 16:01:58;;;;;;;6.13;4.27;;;9.00;99.90;;;;;;10309274;28;20238;-69
2023/03/08 16:06:59;;;;;;;7.30;4.17;;;9.00;99.90;;;;;;10314053;28;20218;-69
2023/03/08 16:11:59;;;;;;;5.53;3.87;;;9.00;99.90;;;;;;10319125;28;20256;-69
2023/03/08 16:17:02;;;;;;;6.63;4.40;;;9.10;99.90;;;;;;10309995;28;20245;-69
2023/03/08 16:22:02;;;;;;;7.10;4.57;;;9.00;99.90;;;;;;10308241;28;20229;-70
2023/03/08 16:27:03;;;;;;;7.40;4.83;;;9.00;99.90;;;;;;10310130;28;20228;-68
2023/03/08 16:32:04;;;;;;;8.03;4.70;;;9.00;99.90;;;;;;10311143;28;20333;-68
2023/03/08 16:37:05;;;;;;;5.33;4.37;;;9.10;99.90;;;;;;10302718;28;20288;-69
2023/03/08 16:42:12;;;;;;;7.67;4.20;;;9.20;99.90;;;;;;10315781;28;20234;-70
2023/03/08 16:47:13;;;;;;;6.20;4.43;;;9.30;99.90;;;;;;10309874;28;20218;-68
2023/03/08 16:52:15;;;;;;;4.20;3.80;;;9.20;99.90;;;;;;10306855;28;20252;-70
2023/03/08 16:57:16;;;;;;;6.90;3.90;;;9.30;99.90;;;;;;10306480;28;20697;-69
2023/03/08 17:02:19;;;;;;;7.93;4.57;;;9.20;99.90;;;;;;10299032;28;20234;-69
2023/03/08 17:07:20;;;;;;;4.43;3.73;;;9.20;99.90;;;;;;10314239;28;20235;-69
2023/03/08 17:12:21;;;;;;;3.67;3.30;;;9.20;99.90;;;;;;10316278;28;20256;-70
2023/03/08 17:17:21;;;;;;;3.93;3.30;;;9.20;99.90;;;;;;10308683;28;20229;-69
2023/03/08 17:22:22;;;;;;;3.70;3.00;;;9.10;99.90;;;;;;10319348;28;20229;-68
2023/03/08 17:27:23;;;;;;;3.90;2.90;;;9.10;99.90;;;;;;10316077;28;20810;-70
2023/03/08 17:32:24;;;;;;;4.20;3.00;;;9.20;99.90;;;;;;10324094;28;20316;-67
2023/03/08 17:37:24;;;;;;;4.27;2.80;;;9.20;99.90;;;;;;10322015;28;20615;-69
2023/03/08 17:42:25;;;;;;;2.93;2.60;;;9.20;99.90;;;;;;10323455;28;20233;-67
2023/03/08 17:47:26;;;;;;;3.57;2.17;;;9.20;99.90;;;;;;10325962;28;20296;-70
2023/03/08 17:52:26;;;;;;;2.40;1.80;;;9.10;99.90;;;;;;10322951;28;20225;-68
2023/03/08 17:57:27;;;;;;;4.53;1.90;;;9.10;99.90;;;;;;10314477;28;20602;-69
2023/03/08 18:02:28;;;;;;;2.93;2.00;;;9.00;99.90;;;;;;10321339;28;20231;-67
2023/03/08 18:07:28;;;;;;;3.10;2.20;;;9.00;99.90;;;;;;10329463;28;20224;-68
2023/03/08 18:12:29;;;;;;;10.80;9.57;;;8.90;99.90;;;;;;10317403;28;20221;-68
2023/03/08 18:17:30;;;;;;;12.70;10.80;;;8.90;99.90;;;;;;10315072;28;20231;-69
2023/03/08 18:22:30;;;;;;;17.90;15.60;;;8.60;99.90;;;;;;10315660;28;20236;-69
2023/03/08 18:27:31;;;;;;;15.83;14.23;;;8.40;99.90;;;;;;10316799;28;20306;-68
2023/03/08 18:32:32;;;;;;;17.00;15.10;;;8.20;99.90;;;;;;10319943;28;20225;-68
2023/03/08 18:37:32;;;;;;;16.80;15.00;;;8.00;99.90;;;;;;10326673;28;20217;-69
2023/03/08 18:42:33;;;;;;;22.03;17.00;;;7.90;99.90;;;;;;10307020;28;20692;-69
2023/03/08 18:47:34;;;;;;;18.00;16.10;;;7.90;99.90;;;;;;10316590;28;20282;-68
2023/03/08 18:52:35;;;;;;;20.23;16.50;;;7.90;99.90;;;;;;10321638;28;20236;-70
2023/03/08 18:57:36;;;;;;;20.37;16.50;;;7.80;99.90;;;;;;10323133;28;20222;-68
2023/03/08 19:02:37;;;;;;;20.43;17.47;;;7.90;99.90;;;;;;10311531;28;20229;-68
2023/03/08 19:07:39;;;;;;;18.60;15.10;;;7.90;99.90;;;;;;10310918;28;20218;-69
2023/03/08 19:12:42;;;;;;;17.17;14.40;;;8.00;99.90;;;;;;10313604;28;20253;-67
2023/03/08 19:17:43;;;;;;;17.90;15.87;;;8.00;99.90;;;;;;10310986;28;20275;-69
2023/03/08 19:22:44;;;;;;;16.60;13.00;;;8.00;99.90;;;;;;10311382;28;20313;-69
2023/03/08 19:27:44;;;;;;;15.37;11.17;;;8.10;99.90;;;;;;10322757;28;20242;-68
2023/03/08 19:32:47;;;;;;;13.20;10.00;;;8.20;99.90;;;;;;10311033;28;20226;-68
2023/03/08 19:37:47;;;;;;;9.77;7.13;;;8.30;99.90;;;;;;10321431;28;20230;-67
2023/03/08 19:42:50;;;;;;;9.77;6.07;;;8.40;99.90;;;;;;10311486;28;20230;-68
2023/03/08 19:47:51;;;;;;;7.63;4.80;;;8.40;99.90;;;;;;10329440;28;20278;-69
2023/03/08 19:52:52;;;;;;;6.87;4.60;;;8.40;99.90;;;;;;10318273;28;20351;-69
2023/03/08 19:57:52;;;;;;;5.43;3.33;;;8.50;99.90;;;;;;10325324;28;20224;-69
2023/03/08 20:02:53;;;;;;;4.57;3.50;;;8.50;99.90;;;;;;10310738;28;20229;-68
2023/03/08 20:07:53;;;;;;;4.60;3.60;;;8.40;99.90;;;;;;10310440;28;20270;-69
2023/03/08 20:12:54;;;;;;;4.67;3.80;;;8.50;99.90;;;;;;10306437;28;20308;-70
2023/03/08 20:17:54;;;;;;;3.77;3.47;;;8.60;99.90;;;;;;10320541;28;20765;-69
2023/03/08 20:22:55;;;;;;;6.50;3.77;;;8.60;99.90;;;;;;10311349;28;20237;-67
2023/03/08 20:27:56;;;;;;;4.40;3.57;;;8.60;99.90;;;;;;10318035;28;20264;-66
2023/03/08 20:32:57;;;;;;;4.07;3.67;;;8.50;99.90;;;;;;10317574;28;20220;-68
2023/03/08 20:37:57;;;;;;;4.10;2.97;;;8.60;99.90;;;;;;10317559;28;20229;-68
2023/03/08 20:42:59;;;;;;;8.50;3.53;;;8.60;99.90;;;;;;10307618;28;20239;-69
2023/03/08 20:48:02;;;;;;;3.70;3.20;;;8.60;99.90;;;;;;10323675;28;20313;-67
2023/03/08 20:53:02;;;;;;;3.47;3.17;;;8.60;99.90;;;;;;10317438;28;20226;-70
2023/03/08 20:58:04;;;;;;;4.53;3.07;;;8.60;99.90;;;;;;10328456;28;20236;-69
2023/03/08 21:03:04;;;;;;;4.03;2.77;;;8.60;99.90;;;;;;10319844;28;20232;-69
2023/03/08 21:08:08;;;;;;;3.77;2.73;;;8.50;99.90;;;;;;10324204;28;20236;-69
2023/03/08 21:13:11;;;;;;;5.70;3.20;;;8.60;99.90;;;;;;10315199;28;20226;-68
2023/03/08 21:18:12;;;;;;;4.13;2.80;;;8.60;99.90;;;;;;10331485;28;20594;-69
2023/03/08 21:23:15;;;;;;;3.80;2.80;;;8.60;99.90;;;;;;10324182;28;20236;-67
2023/03/08 21:28:15;;;;;;;3.07;2.60;;;8.60;99.90;;;;;;10330405;28;20661;-70
2023/03/08 21:33:16;;;;;;;4.83;2.83;;;8.60;99.90;;;;;;10331673;28;20267;-69
2023/03/08 21:38:17;;;;;;;3.40;2.97;;;8.50;99.90;;;;;;10335285;28;20220;-70
2023/03/08 21:43:17;;;;;;;3.13;2.53;;;8.60;99.90;;;;;;10333778;28;20233;-70
2023/03/08 21:48:18;;;;;;;4.23;2.87;;;8.60;99.90;;;;;;10331353;28;20619;-72
2023/03/08 21:53:18;;;;;;;3.87;3.00;;;8.50;99.90;;;;;;10323932;28;20726;-70
2023/03/08 21:58:19;;;;;;;3.47;3.07;;;8.50;99.90;;;;;;10312009;28;20304;-70
2023/03/08 22:03:20;;;;;;;3.17;2.93;;;8.60;99.90;;;;;;10343203;28;20229;-70
2023/03/08 22:08:21;;;;;;;3.50;3.20;;;8.60;99.90;;;;;;10320186;28;20249;-69
2023/03/08 22:13:21;;;;;;;5.20;3.90;;;8.60;99.90;;;;;;10320898;28;20267;-69
2023/03/08 22:18:22;;;;;;;5.47;4.67;;;8.70;99.90;;;;;;10323755;28;20265;-69
2023/03/08 22:23:25;;;;;;;5.47;4.73;;;8.70;99.90;;;;;;10337281;28;20233;-67
2023/03/08 22:28:28;;;;;;;5.73;4.70;;;8.80;99.90;;;;;;10309408;28;20318;-68
2023/03/08 22:33:30;;;;;;;4.00;3.40;;;8.80;99.90;;;;;;10305988;28;20226;-68
2023/03/08 22:38:31;;;;;;;3.10;2.80;;;8.80;99.90;;;;;;10310139;28;20224;-68
2023/03/08 22:43:31;;;;;;;3.37;3.00;;;8.90;99.90;;;;;;10314596;28;20234;-68
2023/03/08 22:48:32;;;;;;;3.13;2.70;;;9.00;99.90;;;;;;10317242;28;20604;-71
2023/03/08 22:53:32;;;;;;;4.47;3.00;;;9.00;99.90;;;;;;10325763;28;20229;-68
2023/03/08 22:58:33;;;;;;;3.03;2.70;;;9.10;99.90;;;;;;10321827;28;20375;-67
2023/03/08 23:03:33;;;;;;;4.13;3.20;;;9.20;99.90;;;;;;10328379;28;20773;-67
2023/03/08 23:08:34;;;;;;;5.13;3.47;;;9.20;99.90;;;;;;10319372;28;20221;-67
2023/03/08 23:13:35;;;;;;;4.43;3.83;;;9.30;99.90;;;;;;10315530;28;20743;-66
2023/03/08 23:18:35;;;;;;;4.40;4.00;;;9.40;99.90;;;;;;10322676;28;20681;-67
2023/03/08 23:23:36;;;;;;;3.97;3.63;;;9.50;99.90;;;;;;10322663;28;20230;-68
2023/03/08 23:28:36;;;;;;;4.53;3.23;;;9.50;99.90;;;;;;10327103;28;20221;-68
2023/03/08 23:33:37;;;;;;;3.10;2.80;;;9.60;99.90;;;;;;10317152;28;20232;-68
2023/03/08 23:38:38;;;;;;;3.40;3.10;;;9.50;99.90;;;;;;10323182;28;20222;-68
2023/03/08 23:43:39;;;;;;;3.87;2.30;;;9.60;99.90;;;;;;10317151;28;20237;-67
2023/03/08 23:48:40;;;;;;;3.63;2.83;;;9.70;99.90;;;;;;10316766;28;20237;-67
2023/03/08 23:53:47;;;;;;;4.93;2.63;;;9.70;99.90;;;;;;10317342;28;20636;-66
2023/03/08 23:58:48;;;;;;;2.73;2.40;;;9.80;99.90;;;;;;10303617;28;20218;-66
